Time;durP1;ratioP1;P1;durP2;ratioP2;P2;SDS_P1;SDS_P2;PMS_P1;PMS_P2;Temp;Humidity;BMP_temperature;BMP_pressure;BME280_temperature;BME280_humidity;BME280_pressure;Samples;Min_cycle;Max_cycle;Signal;HPM_P1;HPM_P2
2023/06/15 00:02:16;;;;;;;3.00;2.80;;;20.00;71.10;;;20.52;nan;100587.03;4998412;28;20637;-68
2023/06/15 00:04:43;;;;;;;3.40;3.10;;;20.00;71.20;;;20.56;nan;100583.03;4998080;28;20669;-69
2023/06/15 00:07:10;;;;;;;4.47;3.40;;;20.00;71.30;;;20.56;nan;100583.03;5010321;28;20694;-68
2023/06/15 00:09:37;;;;;;;4.80;3.03;;;20.00;71.20;;;20.52;nan;100582.59;5000299;28;20646;-69
2023/06/15 00:12:08;;;;;;;2.53;2.40;;;20.00;71.30;;;20.48;nan;100583.09;4996822;28;20630;-69
2023/06/15 00:14:36;;;;;;;2.50;2.30;;;20.00;71.40;;;20.43;nan;100588.09;4998581;28;20690;-69
2023/06/15 00:17:04;;;;;;;3.07;2.60;;;19.90;71.60;;;20.34;nan;100589.13;5007834;28;21204;-70
2023/06/15 00:19:31;;;;;;;3.23;2.70;;;19.80;71.70;;;20.32;nan;100596.44;4980920;28;20637;-68
2023/06/15 00:21:58;;;;;;;2.93;2.73;;;19.80;71.70;;;20.33;nan;100590.16;4995268;28;20641;-68
2023/06/15 00:24:26;;;;;;;2.63;2.53;;;19.80;71.70;;;20.37;nan;100594.09;4980243;28;20666;-69
2023/06/15 00:26:53;;;;;;;2.80;2.60;;;19.90;71.50;;;20.34;nan;100597.91;5005923;28;20640;-68
2023/06/15 00:29:20;;;;;;;2.93;2.73;;;19.80;71.70;;;20.39;nan;100595.56;5016890;28;21196;-68
2023/06/15 00:31:47;;;;;;;2.70;2.50;;;19.90;71.50;;;20.44;nan;100598.53;5015873;28;20637;-68
2023/06/15 00:34:14;;;;;;;2.30;2.20;;;19.90;71.40;;;20.44;nan;100600.34;5000662;28;20674;-69
2023/06/15 00:36:41;;;;;;;2.77;2.57;;;20.00;71.40;;;20.41;nan;100603.34;5006084;28;20646;-69
2023/06/15 00:39:09;;;;;;;3.43;3.13;;;19.90;71.50;;;20.36;nan;100606.50;5003151;28;20637;-70
2023/06/15 00:41:43;;;;;;;3.27;3.07;;;19.90;71.80;;;20.36;nan;100606.50;5002974;28;20780;-68
2023/06/15 00:44:11;;;;;;;3.00;2.83;;;19.80;71.80;;;20.39;nan;100608.00;4994456;28;20672;-70
2023/06/15 00:46:39;;;;;;;3.40;3.20;;;19.90;71.90;;;20.42;nan;100607.66;5004259;28;20610;-69
2023/06/15 00:49:07;;;;;;;3.27;2.97;;;19.90;71.90;;;20.45;nan;100612.59;4981040;28;20638;-68
2023/06/15 00:51:39;;;;;;;3.30;3.10;;;20.00;72.00;;;20.41;nan;100611.28;4978822;28;20684;-69
2023/06/15 00:54:08;;;;;;;3.03;2.83;;;19.90;72.10;;;20.35;nan;100612.00;4996060;28;20678;-68
2023/06/15 00:56:35;;;;;;;2.40;2.30;;;19.90;72.40;;;20.31;nan;100613.34;4984722;28;20638;-69
2023/06/15 00:59:03;;;;;;;2.57;2.37;;;19.80;72.60;;;20.32;nan;100610.50;4988582;28;20643;-70
2023/06/15 01:01:30;;;;;;;2.20;2.10;;;19.80;72.80;;;20.28;nan;100611.84;4963905;28;20587;-68
2023/06/15 01:03:59;;;;;;;2.63;2.43;;;19.80;72.90;;;20.17;nan;100617.50;4962266;28;20652;-68
2023/06/15 01:06:31;;;;;;;2.07;2.00;;;19.70;73.10;;;20.09;nan;100623.66;4994750;28;20644;-68
2023/06/15 01:09:01;;;;;;;2.13;2.03;;;19.60;73.30;;;20.00;nan;100624.69;4979838;28;20626;-68
2023/06/15 01:11:33;;;;;;;1.97;1.87;;;19.60;73.70;;;19.94;nan;100619.25;4991743;28;21270;-68
2023/06/15 01:14:03;;;;;;;2.17;2.10;;;19.50;73.80;;;19.89;nan;100617.09;4997771;28;20677;-69
2023/06/15 01:16:38;;;;;;;2.37;2.27;;;19.50;74.00;;;19.82;nan;100610.88;4974766;28;20637;-70
2023/06/15 01:19:29;;;;;;;2.27;2.17;;;19.40;74.40;;;19.73;nan;100614.53;4992951;28;20620;-69
2023/06/15 01:22:20;;;;;;;2.40;2.20;;;19.30;74.70;;;19.71;nan;100611.22;4988690;28;20644;-69
2023/06/15 01:25:04;;;;;;;2.93;2.73;;;19.30;74.90;;;19.64;nan;100609.41;4973796;28;20662;-69
2023/06/15 01:27:33;;;;;;;2.17;2.07;;;19.20;75.00;;;19.61;nan;100610.59;4992865;28;20598;-71
2023/06/15 01:30:04;;;;;;;2.30;2.20;;;19.10;75.30;;;19.64;nan;100604.94;4971081;28;20639;-70
2023/06/15 01:32:32;;;;;;;2.83;2.70;;;19.10;75.30;;;19.72;nan;100604.91;4992079;28;20634;-70
2023/06/15 01:35:00;;;;;;;2.80;2.60;;;19.20;75.20;;;19.77;nan;100607.88;4987951;28;20673;-70
2023/06/15 01:37:27;;;;;;;7.63;2.63;;;19.30;75.30;;;19.80;nan;100604.91;4996271;28;20638;-71
2023/06/15 01:39:55;;;;;;;3.60;3.30;;;19.30;75.30;;;19.79;nan;100613.84;4992584;28;20598;-69
2023/06/15 01:42:23;;;;;;;3.57;3.30;;;19.30;75.40;;;19.80;nan;100610.22;4988943;28;21037;-69
2023/06/15 01:44:52;;;;;;;4.70;3.90;;;19.30;75.40;;;19.78;nan;100609.53;4989516;28;20677;-70
2023/06/15 01:47:20;;;;;;;3.33;3.13;;;19.40;75.70;;;19.81;nan;100608.38;4972922;28;20622;-70
2023/06/15 01:49:47;;;;;;;3.70;2.90;;;19.30;75.70;;;19.80;nan;100615.50;4985489;28;20646;-71
2023/06/15 01:52:15;;;;;;;2.73;2.53;;;19.30;75.80;;;19.74;nan;100610.06;4971573;28;20653;-69
2023/06/15 01:54:42;;;;;;;3.27;2.97;;;19.30;76.20;;;19.67;nan;100604.63;4991394;28;20666;-69
2023/06/15 01:57:10;;;;;;;3.47;3.20;;;19.20;76.40;;;19.65;nan;100608.41;4991387;28;20654;-69
2023/06/15 01:59:37;;;;;;;3.10;2.83;;;19.20;76.50;;;19.64;nan;100610.22;4992930;28;21181;-68
2023/06/15 02:02:04;;;;;;;4.23;3.40;;;19.20;76.60;;;19.61;nan;100602.66;4976889;28;21180;-69
2023/06/15 02:04:31;;;;;;;3.47;3.27;;;19.10;76.70;;;19.44;nan;100602.84;4979351;28;21249;-70
2023/06/15 02:07:00;;;;;;;3.37;3.17;;;19.00;77.30;;;19.47;nan;100610.41;4991032;28;21014;-69
2023/06/15 02:09:27;;;;;;;3.60;3.30;;;19.00;77.20;;;19.44;nan;100611.59;4991594;28;20982;-68
2023/06/15 02:11:54;;;;;;;2.90;2.70;;;18.90;77.30;;;19.47;nan;100616.53;4993605;28;20650;-69
2023/06/15 02:14:24;;;;;;;3.70;3.23;;;18.90;77.40;;;19.44;nan;100611.59;4989631;28;20705;-69
2023/06/15 02:16:51;;;;;;;2.67;2.47;;;19.00;77.40;;;19.42;nan;100608.31;4999612;28;20993;-68
2023/06/15 02:19:21;;;;;;;2.40;2.20;;;19.00;77.80;;;19.39;nan;100605.97;4977114;28;20654;-70
2023/06/15 02:21:49;;;;;;;4.87;3.20;;;18.90;77.80;;;19.32;nan;100610.25;4975836;28;20634;-70
2023/06/15 02:24:17;;;;;;;3.13;2.93;;;18.90;78.20;;;19.27;nan;100612.59;4988193;28;20642;-71
2023/06/15 02:26:45;;;;;;;4.03;3.63;;;18.80;78.50;;;19.24;nan;100612.91;4996283;28;21226;-69
2023/06/15 02:29:12;;;;;;;2.90;2.70;;;18.80;78.50;;;19.21;nan;100603.47;4991205;28;20609;-69
2023/06/15 02:31:40;;;;;;;3.47;3.20;;;18.80;78.80;;;19.15;nan;100611.25;4973334;28;20638;-69
2023/06/15 02:34:07;;;;;;;3.40;3.20;;;18.70;79.10;;;19.14;nan;100622.84;4956133;28;20690;-70
2023/06/15 02:36:34;;;;;;;2.97;2.77;;;18.70;79.40;;;19.10;nan;100624.16;4974397;28;20650;-69
2023/06/15 02:39:02;;;;;;;3.60;3.30;;;18.60;79.70;;;19.11;nan;100616.06;4991635;28;20619;-69
2023/06/15 02:41:29;;;;;;;2.70;2.60;;;18.60;79.70;;;19.13;nan;100618.53;4991086;28;20622;-68
2023/06/15 02:43:56;;;;;;;3.43;3.13;;;18.70;79.90;;;19.18;nan;100624.16;4977597;28;20637;-72
2023/06/15 02:46:23;;;;;;;3.00;2.80;;;18.70;79.80;;;19.20;nan;100620.34;5008650;28;20641;-69
2023/06/15 02:48:51;;;;;;;3.20;3.00;;;18.80;79.90;;;19.20;nan;100630.09;4976931;28;20633;-69
2023/06/15 02:51:19;;;;;;;3.00;2.70;;;18.70;80.00;;;19.15;nan;100629.75;4991234;28;20725;-69
2023/06/15 02:53:47;;;;;;;3.20;3.00;;;18.70;80.20;;;19.06;nan;100628.13;4989484;28;20678;-69
2023/06/15 02:56:19;;;;;;;3.47;3.13;;;18.60;80.70;;;19.02;nan;100632.06;4991359;28;20609;-70
2023/06/15 02:58:48;;;;;;;3.40;3.10;;;18.60;81.00;;;19.03;nan;100631.09;4977257;28;20702;-70
2023/06/15 03:01:16;;;;;;;3.90;3.03;;;18.60;81.10;;;19.08;nan;100631.44;4972509;28;20630;-71
2023/06/15 03:03:43;;;;;;;2.93;2.70;;;18.60;81.20;;;19.07;nan;100635.06;4998235;28;20616;-71
2023/06/15 03:06:11;;;;;;;2.90;2.80;;;18.60;81.40;;;19.11;nan;100639.00;4997292;28;20634;-70
2023/06/15 03:08:38;;;;;;;3.53;3.33;;;18.60;81.40;;;19.09;nan;100635.72;4998822;28;20599;-70
2023/06/15 03:11:05;;;;;;;3.07;2.77;;;18.60;81.70;;;19.06;nan;100644.00;4997189;28;20627;-69
2023/06/15 03:13:33;;;;;;;3.00;2.80;;;18.60;81.90;;;19.04;nan;100640.66;4997863;28;20630;-70
2023/06/15 03:16:06;;;;;;;2.37;2.17;;;18.60;82.30;;;19.01;nan;100648.94;4981370;28;20627;-70
2023/06/15 03:18:33;;;;;;;3.13;2.83;;;18.60;82.80;;;18.94;nan;100640.84;4980158;28;20736;-70
2023/06/15 03:21:01;;;;;;;2.80;2.60;;;18.50;83.40;;;18.91;nan;100653.56;5000109;28;20629;-69
2023/06/15 03:23:28;;;;;;;2.90;2.70;;;18.50;83.80;;;18.83;nan;100653.53;4996815;28;21255;-70
2023/06/15 03:25:55;;;;;;;2.67;2.53;;;18.40;84.50;;;18.76;nan;100657.81;4999648;28;20637;-70
2023/06/15 03:28:27;;;;;;;2.90;2.70;;;18.30;85.10;;;18.73;nan;100653.69;4999158;28;21169;-70
2023/06/15 03:30:56;;;;;;;3.00;2.80;;;18.30;85.60;;;18.79;nan;100649.56;5001053;28;21173;-68
2023/06/15 03:33:24;;;;;;;3.00;2.77;;;18.30;85.60;;;18.80;nan;100656.50;4996874;28;20645;-71
2023/06/15 03:35:53;;;;;;;4.60;3.40;;;18.40;85.70;;;18.79;nan;100655.69;5005423;28;20756;-70
2023/06/15 03:38:20;;;;;;;2.80;2.60;;;18.30;86.00;;;18.79;nan;100655.69;5018535;28;21232;-71
2023/06/15 03:40:47;;;;;;;5.53;2.60;;;18.40;86.00;;;18.73;nan;100664.25;5003287;28;20637;-70
2023/06/15 03:43:14;;;;;;;3.20;3.00;;;18.30;86.40;;;18.67;nan;100664.91;5013083;28;21130;-71
2023/06/15 03:45:41;;;;;;;3.00;2.80;;;18.30;87.10;;;18.72;nan;100672.34;4997976;28;20672;-70
2023/06/15 03:48:08;;;;;;;3.20;3.00;;;18.30;86.90;;;18.78;nan;100671.69;5001888;28;20642;-70
2023/06/15 03:50:35;;;;;;;3.33;3.03;;;18.30;87.10;;;18.83;nan;100674.66;4991724;28;20999;-70
2023/06/15 03:53:03;;;;;;;3.70;3.03;;;18.40;87.50;;;18.93;nan;100673.53;4995008;28;20630;-70
2023/06/15 03:55:31;;;;;;;3.00;2.80;;;18.50;87.20;;;19.00;nan;100668.41;4990316;28;20674;-70
2023/06/15 03:57:58;;;;;;;4.43;3.30;;;18.60;87.20;;;19.11;nan;100670.75;4986780;28;20686;-71
2023/06/15 04:00:25;;;;;;;2.63;2.43;;;18.60;86.90;;;19.22;nan;100673.91;4981755;28;21201;-69
2023/06/15 04:02:52;;;;;;;2.67;2.47;;;18.80;86.50;;;19.29;nan;100677.53;4978136;28;21178;-71
2023/06/15 04:05:21;;;;;;;3.10;2.90;;;18.80;86.20;;;19.37;nan;100678.56;4989147;28;20761;-71
2023/06/15 04:07:48;;;;;;;3.10;2.90;;;18.90;86.10;;;19.43;nan;100684.03;4979178;28;21213;-72
2023/06/15 04:10:15;;;;;;;3.60;3.00;;;18.90;85.80;;;19.48;nan;100686.19;4998164;28;21003;-69
2023/06/15 04:12:43;;;;;;;3.10;2.90;;;19.00;85.70;;;19.57;nan;100682.53;4981195;28;20650;-71
2023/06/15 04:15:11;;;;;;;3.03;2.80;;;19.10;85.50;;;19.68;nan;100683.00;4969209;28;20673;-70
2023/06/15 04:17:38;;;;;;;2.93;2.73;;;19.20;85.40;;;19.77;nan;100686.47;4991540;28;21216;-69
2023/06/15 04:20:05;;;;;;;2.93;2.67;;;19.30;85.00;;;19.80;nan;100687.00;4973186;28;20630;-70
2023/06/15 04:22:32;;;;;;;3.77;2.73;;;19.40;84.90;;;19.89;nan;100695.75;4991969;28;20630;-72
2023/06/15 04:25:00;;;;;;;2.90;2.67;;;19.40;85.00;;;20.01;nan;100692.56;4991779;28;20642;-68
2023/06/15 04:27:27;;;;;;;3.10;2.80;;;19.60;84.30;;;20.13;nan;100699.16;4982672;28;20646;-69
2023/06/15 04:29:54;;;;;;;3.00;2.80;;;19.70;84.30;;;20.29;nan;100702.78;4989683;28;20649;-69
2023/06/15 04:32:25;;;;;;;4.03;2.87;;;19.80;84.00;;;20.44;nan;100706.38;4989937;28;20614;-69
2023/06/15 04:34:54;;;;;;;2.57;2.37;;;19.90;83.50;;;20.59;nan;100705.44;4986448;28;21269;-69
2023/06/15 04:37:23;;;;;;;1.97;1.87;;;20.10;82.90;;;20.73;nan;100706.56;4994284;28;20639;-69
2023/06/15 04:39:50;;;;;;;3.40;3.10;;;20.30;82.20;;;20.79;nan;100706.69;4989008;28;20640;-70
2023/06/15 04:42:18;;;;;;;4.43;3.13;;;20.30;81.30;;;20.89;nan;100709.13;4989496;28;20639;-67
2023/06/15 04:44:46;;;;;;;2.23;2.13;;;20.50;81.10;;;20.89;nan;100709.13;4988670;28;20669;-69
2023/06/15 04:47:13;;;;;;;1.93;1.83;;;20.50;80.90;;;20.98;nan;100715.19;4993751;28;20615;-70
2023/06/15 04:49:44;;;;;;;3.50;3.20;;;20.50;80.60;;;21.07;nan;100717.66;4984248;28;21191;-70
2023/06/15 04:52:11;;;;;;;3.10;2.80;;;20.60;80.30;;;21.24;nan;100715.72;4992596;28;20626;-70
2023/06/15 04:54:38;;;;;;;4.60;3.40;;;20.80;80.00;;;21.37;nan;100708.81;4991296;28;20785;-70
2023/06/15 04:57:08;;;;;;;3.40;3.13;;;20.90;79.40;;;21.55;nan;100717.28;4972325;28;20645;-70
2023/06/15 04:59:38;;;;;;;3.50;3.20;;;21.10;78.60;;;21.56;nan;100715.47;4984928;28;21213;-70
2023/06/15 05:02:07;;;;;;;3.43;3.13;;;21.10;78.30;;;21.66;nan;100717.88;4990614;28;20718;-70
2023/06/15 05:04:34;;;;;;;2.13;2.03;;;21.20;78.10;;;21.80;nan;100719.75;4985362;28;20656;-70
2023/06/15 05:07:01;;;;;;;3.37;3.00;;;21.40;77.80;;;21.97;nan;100714.13;4994380;28;20642;-69
2023/06/15 05:09:28;;;;;;;3.37;3.07;;;21.50;77.30;;;22.17;nan;100719.72;4994299;28;21130;-70
2023/06/15 05:11:56;;;;;;;4.00;3.30;;;21.70;76.60;;;22.35;nan;100725.50;4990768;28;20649;-69
2023/06/15 05:14:26;;;;;;;3.07;2.80;;;21.90;76.10;;;22.54;nan;100719.63;4980771;28;20740;-69
2023/06/15 05:16:53;;;;;;;3.90;3.33;;;22.10;75.60;;;22.70;nan;100722.09;4973645;28;20588;-70
2023/06/15 05:19:20;;;;;;;3.83;3.47;;;22.20;75.00;;;22.97;nan;100724.06;4980896;28;21197;-71
2023/06/15 05:21:50;;;;;;;3.67;3.33;;;22.50;74.40;;;23.21;nan;100730.03;4992241;28;20629;-69
2023/06/15 05:24:17;;;;;;;3.37;3.10;;;22.70;73.90;;;23.39;nan;100723.28;5008452;28;20661;-69
2023/06/15 05:26:44;;;;;;;3.63;3.33;;;22.90;73.40;;;23.54;nan;100723.19;4992140;28;20645;-68
2023/06/15 05:29:11;;;;;;;2.80;2.60;;;23.00;72.90;;;23.67;nan;100726.81;4991472;28;20626;-68
2023/06/15 05:31:38;;;;;;;3.40;3.10;;;23.20;72.40;;;23.85;nan;100723.69;4992358;28;20579;-70
2023/06/15 05:34:05;;;;;;;3.23;3.03;;;23.40;72.40;;;24.01;nan;100731.38;4990297;28;20670;-69
2023/06/15 05:36:34;;;;;;;3.57;3.27;;;23.50;72.00;;;24.21;nan;100732.38;4992444;28;20646;-69
2023/06/15 05:39:21;;;;;;;4.63;3.80;;;23.70;71.00;;;24.36;nan;100727.69;5011029;28;20629;-69
2023/06/15 05:41:48;;;;;;;2.20;2.10;;;23.90;70.60;;;24.33;nan;100729.94;5000360;28;20649;-69
2023/06/15 05:44:15;;;;;;;3.20;3.00;;;23.90;70.40;;;24.35;nan;100735.91;4991725;28;20961;-69
2023/06/15 05:46:42;;;;;;;3.63;3.33;;;24.00;70.70;;;24.62;nan;100735.84;4993603;28;20634;-68
2023/06/15 05:49:09;;;;;;;2.93;2.73;;;24.10;70.20;;;24.83;nan;100737.59;5001504;28;20642;-70
2023/06/15 05:51:36;;;;;;;10.40;3.53;;;24.30;70.00;;;24.97;nan;100749.97;4989647;28;20634;-71
2023/06/15 05:54:03;;;;;;;3.50;3.20;;;24.50;69.60;;;25.11;nan;100746.31;4988413;28;20704;-69
2023/06/15 05:56:30;;;;;;;2.97;2.67;;;24.60;69.40;;;25.34;nan;100751.31;4996493;28;20669;-70
2023/06/15 05:58:57;;;;;;;3.90;3.50;;;24.80;69.10;;;25.45;nan;100752.59;4992821;28;20617;-68
2023/06/15 06:01:24;;;;;;;3.30;3.10;;;24.90;68.40;;;25.66;nan;100753.19;4992736;28;20602;-70
2023/06/15 06:03:51;;;;;;;3.47;3.17;;;25.10;68.40;;;25.79;nan;100758.53;4973343;28;20658;-70
2023/06/15 06:06:18;;;;;;;3.70;3.40;;;25.30;67.80;;;26.06;nan;100754.03;4972929;28;21208;-65
2023/06/15 06:08:46;;;;;;;6.70;3.40;;;25.50;67.00;;;26.28;nan;100757.31;4995553;28;20683;-69
2023/06/15 06:11:14;;;;;;;3.80;3.50;;;25.70;66.30;;;26.53;nan;100755.59;4987876;28;20645;-69
2023/06/15 06:13:41;;;;;;;3.67;3.20;;;25.90;65.90;;;26.79;nan;100767.03;4982209;28;20638;-70
2023/06/15 06:16:08;;;;;;;3.00;2.80;;;26.20;65.30;;;27.10;nan;100760.09;4983796;28;20678;-69
2023/06/15 06:18:35;;;;;;;3.73;3.53;;;26.50;64.90;;;27.36;nan;100755.44;4985549;28;21241;-71
2023/06/15 06:21:02;;;;;;;3.47;3.20;;;26.80;64.80;;;27.59;nan;100768.28;4987507;28;20634;-68
2023/06/15 06:23:29;;;;;;;8.13;3.20;;;26.90;63.70;;;27.94;nan;100761.38;4974491;28;20645;-69
2023/06/15 06:25:56;;;;;;;3.63;2.97;;;27.30;63.50;;;28.16;nan;100767.19;4992129;28;20659;-69
2023/06/15 06:28:23;;;;;;;2.60;2.50;;;27.60;63.00;;;28.19;nan;100764.91;4973212;28;21263;-70
2023/06/15 06:30:50;;;;;;;3.00;2.90;;;27.70;62.40;;;28.61;nan;100765.06;4992834;28;20664;-69
2023/06/15 06:33:17;;;;;;;2.23;2.13;;;28.00;62.40;;;29.19;nan;100762.69;4990641;28;20630;-67
2023/06/15 06:35:44;;;;;;;3.40;3.10;;;28.50;61.30;;;29.68;nan;100756.97;4984097;28;20704;-70
2023/06/15 06:38:11;;;;;;;2.70;2.50;;;29.10;60.50;;;30.39;nan;100768.38;4998024;28;21518;-69
2023/06/15 06:40:38;;;;;;;2.20;2.10;;;29.70;59.70;;;30.96;nan;100769.34;4998645;28;21188;-69
2023/06/15 06:43:05;;;;;;;3.60;3.40;;;30.60;62.10;;;31.47;nan;100771.09;4984192;28;20641;-69
2023/06/15 06:45:33;;;;;;;3.27;2.87;;;30.90;61.10;;;31.85;nan;100773.06;4984651;28;20670;-69
2023/06/15 06:48:00;;;;;;;3.80;3.50;;;31.30;56.40;;;32.38;nan;100777.94;4984460;28;20626;-70
2023/06/15 06:50:27;;;;;;;3.10;2.90;;;31.90;55.50;;;33.04;nan;100777.72;4985108;28;20642;-65
2023/06/15 06:52:54;;;;;;;3.10;2.90;;;;;;;33.41;nan;100770.53;4982194;28;20634;-69
2023/06/15 06:55:21;;;;;;;2.83;2.73;;;32.90;53.00;;;33.89;nan;100776.88;4988583;28;20681;-68
2023/06/15 06:57:48;;;;;;;3.00;2.90;;;33.40;52.80;;;34.28;nan;100773.69;4987210;28;20638;-69
2023/06/15 07:00:16;;;;;;;3.50;3.30;;;33.80;52.10;;;34.47;nan;100778.63;4984337;28;21202;-68
2023/06/15 07:02:43;;;;;;;2.73;2.63;;;34.10;51.30;;;34.51;nan;100782.47;4989441;28;20723;-68
2023/06/15 07:05:10;;;;;;;3.17;2.97;;;34.10;50.90;;;34.83;nan;100783.97;4986627;28;20670;-69
2023/06/15 07:07:37;;;;;;;2.90;2.80;;;34.40;50.40;;;35.35;nan;100788.47;4991156;28;20642;-68
2023/06/15 07:10:05;;;;;;;3.30;3.10;;;34.90;50.20;;;35.87;nan;100786.31;4990142;28;20643;-69
2023/06/15 07:12:32;;;;;;;3.10;2.90;;;35.50;49.60;;;35.61;nan;100790.94;4983839;28;20645;-68
2023/06/15 07:14:59;;;;;;;2.70;2.60;;;35.70;48.60;;;35.93;nan;100779.00;4983406;28;20681;-68
2023/06/15 07:17:26;;;;;;;3.27;3.07;;;35.60;48.60;;;36.27;nan;100785.47;4973535;28;20619;-69
2023/06/15 07:19:53;;;;;;;3.97;3.77;;;35.90;48.70;;;36.59;nan;100783.22;4990562;28;20627;-70
2023/06/15 07:22:21;;;;;;;3.27;3.10;;;36.20;48.40;;;36.79;nan;100785.84;4990121;28;20635;-68
2023/06/15 07:24:48;;;;;;;2.60;2.50;;;36.50;48.10;;;36.97;nan;100787.16;4972812;28;20666;-66
2023/06/15 07:27:15;;;;;;;3.37;3.17;;;36.60;47.20;;;36.98;nan;100786.88;4990910;28;20700;-67
2023/06/15 07:29:42;;;;;;;3.20;3.10;;;36.60;47.10;;;37.27;nan;100778.78;4992071;28;20619;-67
2023/06/15 07:32:09;;;;;;;3.20;2.93;;;36.80;47.00;;;37.27;nan;100785.03;4989731;28;20982;-68
2023/06/15 07:34:36;;;;;;;2.47;2.37;;;36.90;46.90;;;35.92;nan;100780.91;4988701;28;20656;-69
2023/06/15 07:37:04;;;;;;;3.23;3.03;;;36.20;46.60;;;36.10;nan;100783.06;4990788;28;20669;-67
2023/06/15 07:39:31;;;;;;;3.17;2.97;;;35.60;47.40;;;35.83;nan;100786.06;4992753;28;21180;-68
2023/06/15 07:41:58;;;;;;;2.73;2.63;;;35.50;47.20;;;35.61;nan;100776.56;4989514;28;20634;-67
2023/06/15 07:44:25;;;;;;;2.60;2.50;;;35.20;47.20;;;35.94;nan;100776.00;4991414;28;20665;-67
2023/06/15 07:46:52;;;;;;;2.90;2.70;;;35.40;47.50;;;35.84;nan;100779.53;4990901;28;20626;-68
2023/06/15 07:49:19;;;;;;;3.10;3.00;;;35.50;47.40;;;35.41;nan;100781.97;4991113;28;20646;-68
2023/06/15 07:51:55;;;;;;;3.50;3.23;;;35.10;48.30;;;35.37;nan;100775.44;5001132;28;20638;-68
2023/06/15 07:54:35;;;;;;;3.10;2.90;;;34.90;47.90;;;35.18;nan;100779.75;4997969;28;20703;-69
2023/06/15 07:57:02;;;;;;;2.87;2.77;;;34.80;48.20;;;35.28;nan;100777.88;4995980;28;20666;-68
2023/06/15 07:59:29;;;;;;;3.60;3.43;;;34.80;47.90;;;34.83;nan;100766.88;4990879;28;21248;-67
2023/06/15 08:01:56;;;;;;;3.03;2.83;;;34.50;48.30;;;34.76;nan;100769.03;4990680;28;20750;-67
2023/06/15 08:04:23;;;;;;;3.00;2.90;;;34.30;48.50;;;33.94;nan;100766.94;4989422;28;20654;-69
2023/06/15 08:06:50;;;;;;;3.33;3.13;;;33.60;48.90;;;33.68;nan;100765.09;4971775;28;20645;-68
2023/06/15 08:09:17;;;;;;;4.50;4.20;;;33.20;48.90;;;33.31;nan;100748.78;4997744;28;21159;-68
2023/06/15 08:11:44;;;;;;;2.40;2.30;;;32.90;49.80;;;32.88;nan;100762.41;4989285;28;20645;-68
2023/06/15 08:14:11;;;;;;;3.37;3.10;;;32.50;49.80;;;32.48;nan;100764.59;4994742;28;20773;-66
2023/06/15 08:16:38;;;;;;;3.10;2.90;;;32.20;50.50;;;31.90;nan;100754.28;4991943;28;20684;-68
2023/06/15 08:19:05;;;;;;;3.20;3.00;;;31.70;50.70;;;31.42;nan;100752.13;4999809;28;20633;-68
2023/06/15 08:21:32;;;;;;;3.93;3.63;;;31.20;52.00;;;31.28;nan;100756.19;4983224;28;20630;-69
2023/06/15 08:23:59;;;;;;;3.87;3.57;;;30.90;52.60;;;31.08;nan;100751.22;5000035;28;20670;-69
2023/06/15 08:26:26;;;;;;;6.73;6.10;;;30.70;53.00;;;30.87;nan;100751.09;5000652;28;20628;-69
2023/06/15 08:28:53;;;;;;;3.93;3.63;;;30.50;53.10;;;30.75;nan;100747.59;4976928;28;20646;-68
2023/06/15 08:31:25;;;;;;;3.67;3.33;;;30.40;53.70;;;30.73;nan;100750.50;4990218;28;20641;-69
2023/06/15 08:33:52;;;;;;;5.10;3.33;;;30.30;54.00;;;30.48;nan;100745.44;4996839;28;20676;-68
2023/06/15 08:36:19;;;;;;;2.63;2.50;;;30.10;53.70;;;30.47;nan;100757.28;5000205;28;20668;-69
2023/06/15 08:38:46;;;;;;;2.70;2.60;;;30.10;53.80;;;30.43;nan;100748.00;4994294;28;21219;-69
2023/06/15 08:41:13;;;;;;;3.67;3.37;;;30.00;53.90;;;30.31;nan;100749.91;4995648;28;20642;-68
2023/06/15 08:43:43;;;;;;;3.07;2.87;;;29.90;54.00;;;30.27;nan;100755.97;4991434;28;20626;-69
2023/06/15 08:46:11;;;;;;;4.63;4.30;;;29.80;54.20;;;30.20;nan;100750.69;4993961;28;20632;-69
2023/06/15 08:48:39;;;;;;;4.87;3.80;;;29.80;54.50;;;30.15;nan;100745.22;4972970;28;20654;-69
2023/06/15 08:51:09;;;;;;;3.73;3.50;;;29.70;54.00;;;29.71;nan;100746.56;5002112;28;21015;-69
2023/06/15 08:53:37;;;;;;;3.33;3.13;;;29.30;54.30;;;29.76;nan;100751.28;4988455;28;20638;-69
2023/06/15 08:56:13;;;;;;;3.10;2.90;;;29.30;54.60;;;29.67;nan;100749.94;4961660;28;20666;-67
2023/06/15 08:58:51;;;;;;;3.43;2.20;;;29.20;54.90;;;29.63;nan;100752.28;4992869;28;20605;-68
2023/06/15 09:01:23;;;;;;;3.60;3.30;;;29.20;54.80;;;29.62;nan;100744.47;4973620;28;20591;-69
2023/06/15 09:03:55;;;;;;;3.67;3.47;;;29.10;54.50;;;29.54;nan;100742.09;4972953;28;20662;-70
2023/06/15 09:06:23;;;;;;;3.20;2.90;;;29.00;54.20;;;29.57;nan;100747.84;4955737;28;21202;-69
2023/06/15 09:08:53;;;;;;;4.00;3.70;;;29.00;54.60;;;29.57;nan;100747.03;4981585;28;20626;-69
2023/06/15 09:11:22;;;;;;;4.10;3.20;;;29.10;54.30;;;29.47;nan;100747.59;4992255;28;20638;-68
2023/06/15 09:13:50;;;;;;;3.40;3.00;;;29.00;54.30;;;29.31;nan;100742.03;4991733;28;20669;-68
2023/06/15 09:16:18;;;;;;;2.73;2.60;;;28.80;54.50;;;29.36;nan;100740.31;4976950;28;20674;-68
2023/06/15 09:18:49;;;;;;;4.47;4.17;;;28.80;54.60;;;29.28;nan;100737.16;4992152;28;20765;-67
2023/06/15 09:21:18;;;;;;;4.00;3.70;;;28.80;55.00;;;29.23;nan;100734.31;4990365;28;20618;-67
2023/06/15 09:23:46;;;;;;;3.60;3.30;;;28.70;54.90;;;29.32;nan;100725.72;4989040;28;20610;-69
2023/06/15 09:26:25;;;;;;;3.87;3.47;;;28.80;55.00;;;29.27;nan;100732.81;4992090;28;20622;-69
2023/06/15 09:28:58;;;;;;;2.87;2.70;;;28.80;54.80;;;29.30;nan;100730.50;4973613;28;20626;-69
2023/06/15 09:31:36;;;;;;;4.20;3.90;;;28.70;54.90;;;29.22;nan;100730.00;5006332;28;21013;-70
2023/06/15 09:34:12;;;;;;;3.30;3.10;;;28.70;55.50;;;29.22;nan;100730.81;4992748;28;20662;-69
2023/06/15 09:36:47;;;;;;;3.03;2.77;;;28.60;54.50;;;29.16;nan;100729.03;5002954;28;20688;-69
2023/06/15 09:39:22;;;;;;;3.30;3.10;;;28.50;54.60;;;29.14;nan;100731.09;4973902;28;20614;-68
2023/06/15 09:42:02;;;;;;;3.80;3.50;;;28.50;54.80;;;29.15;nan;100727.38;4968031;28;20607;-69
2023/06/15 09:44:29;;;;;;;3.93;3.63;;;28.50;54.20;;;29.15;nan;100725.53;4991382;28;20650;-69
2023/06/15 09:47:01;;;;;;;2.97;2.80;;;28.60;54.00;;;29.05;nan;100725.25;4994724;28;20645;-68
2023/06/15 09:49:28;;;;;;;2.87;2.77;;;28.50;54.20;;;29.15;nan;100722.00;4974959;28;20650;-67
2023/06/15 09:51:57;;;;;;;1.90;1.80;;;28.50;54.40;;;29.28;nan;100729.91;5010672;28;20641;-69
2023/06/15 09:54:30;;;;;;;3.00;2.80;;;28.60;54.20;;;29.24;nan;100733.28;4990942;28;20670;-69
2023/06/15 09:57:01;;;;;;;3.20;2.90;;;28.70;53.20;;;29.17;nan;100730.69;4990554;28;20666;-70
2023/06/15 09:59:28;;;;;;;2.53;2.37;;;28.60;53.30;;;29.05;nan;100722.53;4993128;28;20630;-68
2023/06/15 10:01:56;;;;;;;3.90;3.40;;;28.50;53.80;;;29.11;nan;100732.38;4998456;28;20638;-69
2023/06/15 10:04:32;;;;;;;3.40;3.10;;;28.50;53.40;;;28.97;nan;100730.13;4971712;28;20659;-69
2023/06/15 10:07:04;;;;;;;3.30;3.07;;;28.40;52.90;;;28.95;nan;100721.47;4975345;28;20634;-69
2023/06/15 10:09:45;;;;;;;3.77;3.57;;;28.40;52.70;;;28.96;nan;100717.75;4992341;28;20660;-68
2023/06/15 10:12:18;;;;;;;2.70;2.60;;;28.40;52.70;;;28.85;nan;100719.34;4968002;28;20623;-69
2023/06/15 10:15:14;;;;;;;3.63;3.33;;;28.30;52.20;;;28.67;nan;100711.28;4973577;28;21437;-69
2023/06/15 10:17:46;;;;;;;3.30;3.00;;;28.10;52.00;;;28.69;nan;100717.25;4975224;28;20674;-69
2023/06/15 10:20:18;;;;;;;3.20;3.00;;;28.10;52.70;;;28.66;nan;100707.00;4989726;28;20638;-68
2023/06/15 10:23:04;;;;;;;3.37;2.90;;;28.00;52.90;;;28.64;nan;100709.09;4992294;28;21066;-68
2023/06/15 10:25:31;;;;;;;3.10;2.90;;;28.00;52.60;;;28.66;nan;100712.34;4999074;28;21239;-69
2023/06/15 10:28:09;;;;;;;2.57;2.37;;;28.00;53.00;;;28.52;nan;100713.53;4975865;28;20645;-68
2023/06/15 10:30:55;;;;;;;2.67;2.47;;;27.90;52.70;;;28.50;nan;100712.94;4976376;28;20639;-68
2023/06/15 10:33:33;;;;;;;7.60;5.00;;;27.80;53.10;;;28.55;nan;100715.75;5003580;28;20637;-68